createdAt,value
2022-10-10T00:02:14.534Z,13.70
2022-10-10T00:04:42.114Z,13.70
2022-10-10T00:07:16.880Z,13.70
2022-10-10T00:09:44.513Z,13.80
2022-10-10T00:12:26.441Z,13.80
2022-10-10T00:15:00.595Z,13.80
2022-10-10T00:17:34.375Z,13.90
2022-10-10T00:20:02.044Z,13.90
2022-10-10T00:22:35.405Z,13.90
2022-10-10T00:25:03.254Z,13.90
2022-10-10T00:27:37.515Z,14.00
2022-10-10T00:30:08.169Z,14.00
2022-10-10T00:32:43.419Z,14.00
2022-10-10T00:35:11.194Z,14.00
2022-10-10T00:37:46.414Z,13.90
2022-10-10T00:40:20.883Z,13.90
2022-10-10T00:42:55.434Z,13.90
2022-10-10T00:45:50.784Z,13.80
2022-10-10T00:48:28.354Z,13.80
2022-10-10T00:51:15.230Z,13.80
2022-10-10T00:53:56.619Z,13.90
2022-10-10T00:56:29.064Z,13.90
2022-10-10T00:59:10.414Z,13.90
2022-10-10T01:01:40.392Z,13.90
2022-10-10T01:04:34.437Z,13.80
2022-10-10T01:07:15.185Z,13.80
2022-10-10T01:09:51.439Z,13.70
2022-10-10T01:12:48.470Z,13.70
2022-10-10T01:15:42.448Z,13.70
2022-10-10T01:18:24.813Z,13.70
2022-10-10T01:21:08.349Z,13.70
2022-10-10T01:23:51.404Z,13.70
2022-10-10T01:26:46.735Z,13.70
2022-10-10T01:29:36.518Z,13.60
2022-10-10T01:32:39.389Z,13.60
2022-10-10T01:35:40.618Z,13.60
2022-10-10T01:38:45.370Z,13.60
2022-10-10T01:41:31.349Z,13.60
2022-10-10T01:44:06.781Z,13.60
2022-10-10T01:46:33.987Z,13.60
2022-10-10T01:49:08.403Z,13.60
2022-10-10T01:51:38.373Z,13.60
2022-10-10T01:54:37.374Z,13.60
2022-10-10T01:57:27.986Z,13.60
2022-10-10T02:00:04.248Z,13.50
2022-10-10T02:02:41.014Z,13.50
2022-10-10T02:05:43.228Z,13.50
2022-10-10T02:08:29.415Z,13.50
2022-10-10T02:11:14.374Z,13.50
2022-10-10T02:13:59.609Z,13.50
2022-10-10T02:16:40.438Z,13.50
2022-10-10T02:19:17.843Z,13.50
2022-10-10T02:21:54.339Z,13.50
2022-10-10T02:24:24.734Z,13.50
2022-10-10T02:27:08.260Z,13.50
2022-10-10T02:29:39.003Z,13.50
2022-10-10T02:32:27.383Z,13.40
2022-10-10T02:34:58.053Z,13.40
2022-10-10T02:37:33.414Z,13.40
2022-10-10T02:40:03.855Z,13.40
2022-10-10T02:42:38.359Z,13.40
2022-10-10T02:45:12.418Z,13.40
2022-10-10T02:47:46.380Z,13.40
2022-10-10T02:50:13.622Z,13.40
2022-10-10T02:52:48.669Z,13.40
2022-10-10T02:55:16.433Z,13.40
2022-10-10T02:57:50.420Z,13.40
2022-10-10T03:00:18.873Z,13.50
2022-10-10T03:02:53.867Z,13.50
2022-10-10T03:05:28.410Z,13.50
2022-10-10T03:07:55.869Z,13.40
2022-10-10T03:10:29.413Z,13.40
2022-10-10T03:13:16.464Z,13.40
2022-10-10T03:15:43.613Z,13.40
2022-10-10T03:18:10.790Z,13.30
2022-10-10T03:20:45.610Z,13.30
2022-10-10T03:23:14.304Z,13.20
2022-10-10T03:25:50.619Z,13.20
2022-10-10T03:28:18.044Z,13.10
2022-10-10T03:30:53.478Z,13.10
2022-10-10T03:33:28.053Z,13.00
2022-10-10T03:36:01.458Z,13.10
2022-10-10T03:38:29.185Z,13.10
2022-10-10T03:41:03.418Z,13.00
2022-10-10T03:43:31.143Z,13.00
2022-10-10T03:46:05.659Z,13.00
2022-10-10T03:48:33.468Z,12.90
2022-10-10T03:51:07.410Z,12.80
2022-10-10T03:53:41.578Z,12.80
2022-10-10T03:56:15.773Z,12.70
2022-10-10T03:58:49.493Z,12.70
2022-10-10T04:01:16.704Z,12.70
2022-10-10T04:03:52.288Z,12.60
2022-10-10T04:06:20.533Z,12.60
2022-10-10T04:08:48.123Z,12.60
2022-10-10T04:11:22.439Z,12.50
2022-10-10T04:13:49.751Z,12.50
2022-10-10T04:16:17.103Z,12.50
2022-10-10T04:18:51.422Z,12.60
2022-10-10T04:21:25.703Z,12.60
2022-10-10T04:23:53.215Z,12.60
2022-10-10T04:26:20.453Z,12.50
2022-10-10T04:28:54.464Z,12.40
2022-10-10T04:31:22.197Z,12.40
2022-10-10T04:33:49.764Z,12.30
2022-10-10T04:36:23.435Z,12.30
2022-10-10T04:38:50.568Z,12.20
2022-10-10T04:41:24.404Z,12.20
2022-10-10T04:43:51.645Z,12.20
2022-10-10T04:46:25.494Z,12.20
2022-10-10T04:48:52.715Z,12.20
2022-10-10T04:51:26.436Z,12.10
2022-10-10T04:54:00.730Z,12.20
2022-10-10T04:56:28.168Z,12.20
2022-10-10T04:59:02.508Z,12.10
2022-10-10T05:01:30.431Z,12.10
2022-10-10T05:04:04.448Z,12.00
2022-10-10T05:06:32.711Z,11.90
2022-10-10T05:09:06.460Z,11.90
2022-10-10T05:11:53.839Z,11.80
2022-10-10T05:14:27.535Z,11.80
2022-10-10T05:16:55.141Z,11.80
2022-10-10T05:19:22.539Z,11.70
2022-10-10T05:21:56.518Z,11.70
2022-10-10T05:24:23.973Z,11.70
2022-10-10T05:26:57.458Z,11.70
2022-10-10T05:29:25.070Z,11.60
2022-10-10T05:31:58.567Z,11.60
2022-10-10T05:34:26.260Z,11.60
2022-10-10T05:37:00.655Z,11.60
2022-10-10T05:39:27.938Z,11.60
2022-10-10T05:42:01.481Z,11.60
2022-10-10T05:44:28.691Z,11.60
2022-10-10T05:47:02.440Z,11.60
2022-10-10T05:49:37.470Z,11.60
2022-10-10T05:52:11.475Z,11.60
2022-10-10T05:54:38.841Z,11.60
2022-10-10T05:57:16.180Z,11.60
2022-10-10T05:59:44.195Z,11.60
2022-10-10T06:02:20.524Z,11.60
2022-10-10T06:04:48.054Z,11.60
2022-10-10T06:07:21.530Z,11.60
2022-10-10T06:09:48.787Z,11.60
2022-10-10T06:12:28.392Z,11.70
2022-10-10T06:15:09.431Z,11.70
2022-10-10T06:17:36.926Z,11.70
2022-10-10T06:20:11.586Z,11.80
2022-10-10T06:22:45.845Z,11.90
2022-10-10T06:25:35.509Z,11.90
2022-10-10T06:28:07.472Z,12.00
2022-10-10T06:30:42.461Z,12.10
2022-10-10T06:33:17.509Z,12.10
2022-10-10T06:35:45.794Z,12.10
2022-10-10T06:38:20.543Z,12.20
2022-10-10T06:40:58.480Z,12.20
2022-10-10T06:43:27.607Z,12.30
2022-10-10T06:46:01.470Z,12.30
2022-10-10T06:48:35.024Z,12.40
2022-10-10T06:51:16.634Z,12.40
2022-10-10T06:53:45.240Z,12.50
2022-10-10T06:56:27.599Z,12.60
2022-10-10T06:59:02.494Z,12.60
2022-10-10T07:01:36.466Z,12.70
2022-10-10T07:04:10.451Z,12.70
2022-10-10T07:06:38.481Z,12.80
2022-10-10T07:09:06.249Z,12.80
2022-10-10T07:11:40.724Z,12.90
2022-10-10T07:14:20.565Z,12.90
2022-10-10T07:16:48.373Z,13.00
2022-10-10T07:19:22.373Z,13.00
2022-10-10T07:21:49.627Z,13.10
2022-10-10T07:24:23.588Z,13.20
2022-10-10T07:27:02.383Z,13.20
2022-10-10T07:29:37.515Z,13.20
2022-10-10T07:32:04.950Z,13.20
2022-10-10T07:34:39.525Z,13.20
2022-10-10T07:37:13.696Z,13.20
2022-10-10T07:39:48.545Z,13.30
2022-10-10T07:42:22.816Z,13.30
2022-10-10T07:44:50.445Z,13.40
2022-10-10T07:47:24.556Z,13.40
2022-10-10T07:49:58.825Z,13.50
2022-10-10T07:52:26.402Z,13.50
2022-10-10T07:55:00.526Z,13.60
2022-10-10T07:57:34.476Z,13.60
2022-10-10T08:00:16.646Z,13.70
2022-10-10T08:02:50.514Z,13.70
2022-10-10T08:05:18.152Z,13.80
2022-10-10T08:07:51.703Z,13.80
2022-10-10T08:10:25.616Z,13.90
2022-10-10T08:13:06.579Z,14.00
2022-10-10T08:15:41.474Z,14.10
2022-10-10T08:18:16.093Z,14.30
2022-10-10T08:20:43.415Z,14.50
2022-10-10T08:23:20.553Z,14.60
2022-10-10T08:25:51.436Z,14.80
2022-10-10T08:28:25.559Z,15.00
2022-10-10T08:30:53.020Z,15.30
2022-10-10T08:33:27.610Z,15.50
2022-10-10T08:36:02.875Z,15.70
2022-10-10T08:38:36.556Z,15.90
2022-10-10T08:41:50.457Z,16.10
2022-10-10T08:44:30.936Z,16.40
2022-10-10T08:47:09.955Z,16.70
2022-10-10T08:49:43.335Z,17.00
2022-10-10T08:52:21.505Z,17.20
2022-10-10T08:54:51.312Z,17.50
2022-10-10T08:57:37.525Z,17.70
2022-10-10T09:00:16.682Z,18.00
2022-10-10T09:03:05.619Z,18.30
2022-10-10T09:05:47.653Z,18.60
2022-10-10T09:08:42.766Z,19.00
2022-10-10T09:11:28.895Z,19.30
2022-10-10T09:14:30.814Z,19.60
2022-10-10T09:17:10.530Z,19.90
2022-10-10T09:20:21.575Z,20.10
2022-10-10T09:23:03.470Z,20.40
2022-10-10T09:25:40.685Z,20.60
2022-10-10T09:28:38.483Z,20.80
2022-10-10T09:31:15.213Z,21.00
2022-10-10T09:34:19.530Z,21.10
2022-10-10T09:36:48.724Z,21.20
2022-10-10T09:39:46.469Z,21.20
2022-10-10T09:42:29.515Z,21.30
2022-10-10T09:44:58.323Z,21.40
2022-10-10T09:47:32.695Z,21.40
2022-10-10T09:50:06.442Z,21.50
2022-10-10T09:52:40.653Z,21.50
2022-10-10T09:55:38.589Z,21.50
2022-10-10T09:58:34.564Z,21.50
2022-10-10T10:01:27.154Z,21.50
2022-10-10T10:04:27.700Z,21.60
2022-10-10T10:07:08.247Z,21.60
2022-10-10T10:09:42.609Z,21.50
2022-10-10T10:12:18.766Z,21.50
2022-10-10T10:14:53.588Z,21.60
2022-10-10T10:17:22.817Z,21.60
2022-10-10T10:19:57.813Z,21.70
2022-10-10T10:22:41.007Z,21.70
2022-10-10T10:25:47.526Z,21.80
2022-10-10T10:28:16.905Z,21.90
2022-10-10T10:30:52.563Z,22.00
2022-10-10T10:33:52.594Z,22.10
2022-10-10T10:36:53.223Z,22.30
2022-10-10T10:39:44.826Z,22.40
2022-10-10T10:42:46.124Z,22.50
2022-10-10T10:45:23.996Z,22.60
2022-10-10T10:48:16.458Z,22.70
2022-10-10T10:50:55.565Z,22.80
2022-10-10T10:53:30.372Z,22.90
2022-10-10T10:56:19.475Z,22.90
2022-10-10T11:02:51.133Z,23.00
2022-10-10T11:05:45.843Z,23.10
2022-10-10T11:08:52.525Z,23.20
2022-10-10T11:12:18.449Z,23.20
2022-10-10T11:15:13.570Z,23.30
2022-10-10T11:17:54.711Z,23.30
2022-10-10T11:20:31.442Z,23.20
2022-10-10T11:23:09.362Z,23.20
2022-10-10T11:26:03.600Z,23.30
2022-10-10T11:28:55.565Z,23.30
2022-10-10T11:31:56.721Z,23.40
2022-10-10T11:34:48.465Z,23.40
2022-10-10T11:37:20.450Z,23.40
2022-10-10T11:40:06.630Z,23.40
2022-10-10T11:42:59.638Z,23.40
2022-10-10T11:45:32.679Z,23.40
2022-10-10T11:48:48.641Z,23.40
2022-10-10T11:51:32.492Z,23.50
2022-10-10T11:54:02.661Z,23.50
2022-10-10T11:56:44.708Z,23.60
2022-10-10T11:59:36.380Z,23.60
2022-10-10T12:02:25.843Z,23.60
2022-10-10T12:05:01.569Z,23.60
2022-10-10T12:07:43.767Z,23.50
2022-10-10T12:10:28.552Z,23.50
2022-10-10T12:13:24.632Z,23.50
2022-10-10T12:16:01.946Z,23.50
2022-10-10T12:18:46.639Z,23.40
2022-10-10T12:21:17.511Z,23.40
2022-10-10T12:23:55.645Z,23.40
2022-10-10T12:26:31.746Z,23.30
2022-10-10T12:29:16.566Z,23.30
2022-10-10T12:31:43.815Z,23.20
2022-10-10T12:34:22.609Z,23.20
2022-10-10T12:37:09.639Z,23.10
2022-10-10T12:39:45.496Z,23.10
2022-10-10T12:42:39.521Z,23.00
2022-10-10T12:45:40.545Z,23.00
2022-10-10T12:48:20.264Z,22.90
2022-10-10T12:51:07.145Z,22.80
2022-10-10T12:53:35.019Z,22.80
2022-10-10T12:56:10.541Z,22.70
2022-10-10T12:58:41.874Z,22.70
2022-10-10T13:01:50.979Z,22.60
2022-10-10T13:04:20.344Z,22.50
2022-10-10T13:06:56.564Z,22.50
2022-10-10T13:09:34.070Z,22.40
2022-10-10T13:12:12.876Z,22.40
2022-10-10T13:14:57.695Z,22.30
2022-10-10T13:17:32.000Z,22.20
2022-10-10T13:20:07.673Z,22.20
2022-10-10T13:22:37.544Z,22.10
2022-10-10T13:25:18.683Z,22.00
2022-10-10T13:27:46.454Z,22.00
2022-10-10T13:30:31.622Z,21.90
2022-10-10T13:32:58.760Z,21.80
2022-10-10T13:35:34.521Z,21.80
2022-10-10T13:38:08.777Z,21.70
2022-10-10T13:40:42.653Z,21.70
2022-10-10T13:43:28.082Z,21.70
2022-10-10T13:46:07.664Z,21.60
2022-10-10T13:48:39.498Z,21.60
2022-10-10T13:51:19.398Z,21.50
2022-10-10T13:53:53.974Z,21.50
2022-10-10T13:56:47.606Z,21.40
2022-10-10T13:59:16.043Z,21.40
2022-10-10T14:01:55.605Z,21.30
2022-10-10T14:04:27.500Z,21.20
2022-10-10T14:07:06.548Z,21.10
2022-10-10T14:09:43.193Z,21.00
2022-10-10T14:12:40.767Z,20.90
2022-10-10T14:15:50.245Z,20.80
2022-10-10T14:18:26.547Z,20.70
2022-10-10T14:20:53.872Z,20.60
2022-10-10T14:23:27.803Z,20.50
2022-10-10T14:26:01.583Z,20.40
2022-10-10T14:28:32.194Z,20.30
2022-10-10T14:31:07.055Z,20.20
2022-10-10T14:33:34.323Z,20.10
2022-10-10T14:36:08.622Z,20.10
2022-10-10T14:38:35.937Z,20.00
2022-10-10T14:41:09.952Z,20.00
2022-10-10T14:43:46.001Z,20.00
2022-10-10T14:46:19.282Z,20.00
2022-10-10T14:48:53.543Z,19.90
2022-10-10T14:51:33.357Z,19.90
2022-10-10T14:54:10.225Z,19.90
2022-10-10T14:57:07.217Z,19.90
2022-10-10T14:59:45.991Z,19.90
2022-10-10T15:02:22.745Z,19.90
2022-10-10T15:04:56.673Z,19.90
2022-10-10T15:07:30.694Z,19.80
2022-10-10T15:10:32.785Z,19.80
2022-10-10T15:13:05.552Z,19.80
2022-10-10T15:15:39.763Z,19.80
2022-10-10T15:18:40.877Z,19.70
2022-10-10T15:21:01.216Z,19.70
2022-10-10T15:23:35.676Z,19.70
2022-10-10T15:26:02.918Z,19.70
2022-10-10T15:28:37.001Z,19.60
2022-10-10T15:31:05.075Z,19.60
2022-10-10T15:33:39.672Z,19.50
2022-10-10T15:36:19.138Z,19.50
2022-10-10T15:38:46.599Z,19.50
2022-10-10T15:41:20.921Z,19.50
2022-10-10T15:43:54.872Z,19.40
2022-10-10T15:46:30.620Z,19.40
2022-10-10T15:49:02.371Z,19.40
2022-10-10T15:51:36.637Z,19.30
2022-10-10T15:54:04.789Z,19.30
2022-10-10T15:56:39.688Z,19.20
2022-10-10T15:59:08.722Z,19.20
2022-10-10T16:01:42.684Z,19.10
2022-10-10T16:04:11.223Z,19.10
2022-10-10T16:06:54.170Z,19.00
2022-10-10T16:09:29.035Z,18.90
2022-10-10T16:12:02.723Z,18.90
2022-10-10T16:14:37.043Z,18.80
2022-10-10T16:17:10.567Z,18.70
2022-10-10T16:19:37.899Z,18.70
2022-10-10T16:22:11.606Z,18.60
2022-10-10T16:24:38.758Z,18.60
2022-10-10T16:27:12.853Z,18.50
2022-10-10T16:29:40.088Z,18.50
2022-10-10T16:32:13.667Z,18.50
2022-10-10T16:34:40.888Z,18.40
2022-10-10T16:37:14.844Z,18.40
2022-10-10T16:39:48.725Z,18.30
2022-10-10T16:42:15.934Z,18.30
2022-10-10T16:44:49.696Z,18.20
2022-10-10T16:47:17.050Z,18.20
2022-10-10T16:49:50.684Z,18.10
2022-10-10T16:52:24.513Z,18.10
2022-10-10T16:54:52.459Z,18.00
2022-10-10T16:57:26.686Z,18.00
2022-10-10T17:00:15.536Z,17.90
2022-10-10T17:02:56.573Z,17.90
2022-10-10T17:05:23.794Z,17.80
2022-10-10T17:07:58.615Z,17.80
2022-10-10T17:10:32.724Z,17.80
2022-10-10T17:13:19.659Z,17.80
2022-10-10T17:15:46.894Z,17.70
2022-10-10T17:18:20.682Z,17.70
2022-10-10T17:20:48.378Z,17.70
2022-10-10T17:23:23.961Z,17.70
2022-10-10T17:25:51.739Z,17.70
2022-10-10T17:28:25.774Z,17.60
2022-10-10T17:30:53.420Z,17.50
2022-10-10T17:33:27.676Z,17.50
2022-10-10T17:35:55.118Z,17.50
2022-10-10T17:38:39.705Z,17.50
2022-10-10T17:41:09.149Z,17.40
2022-10-10T17:43:43.659Z,17.40
2022-10-10T17:46:33.764Z,17.40
2022-10-10T17:49:09.689Z,17.40
2022-10-10T17:51:46.438Z,17.40
2022-10-10T17:54:13.719Z,17.40
2022-10-10T17:56:47.833Z,17.50
2022-10-10T17:59:15.205Z,17.50
2022-10-10T18:01:49.582Z,17.50
2022-10-10T18:04:17.232Z,17.50
2022-10-10T18:06:50.717Z,17.50
2022-10-10T18:09:18.100Z,17.50
2022-10-10T18:11:51.846Z,17.50
2022-10-10T18:14:27.624Z,17.50
2022-10-10T18:17:07.603Z,17.50
2022-10-10T18:19:34.816Z,17.40
2022-10-10T18:22:08.722Z,17.40
2022-10-10T18:24:43.844Z,17.40
2022-10-10T18:27:10.982Z,17.40
2022-10-10T18:29:46.647Z,17.40
2022-10-10T18:32:14.083Z,17.30
2022-10-10T18:34:41.893Z,17.30
2022-10-10T18:37:17.179Z,17.30
2022-10-10T18:39:44.558Z,17.30
2022-10-10T18:42:19.038Z,17.30
2022-10-10T18:44:46.461Z,17.30
2022-10-10T18:47:21.043Z,17.30
2022-10-10T18:49:52.055Z,17.20
2022-10-10T18:52:25.621Z,17.20
2022-10-10T18:54:52.811Z,17.10
2022-10-10T18:57:20.447Z,17.00
2022-10-10T18:59:54.664Z,17.00
2022-10-10T19:02:21.822Z,17.00
2022-10-10T19:04:56.609Z,16.90
2022-10-10T19:07:24.611Z,16.90
2022-10-10T19:09:58.727Z,16.80
2022-10-10T19:12:32.899Z,16.80
2022-10-10T19:15:13.678Z,16.70
2022-10-10T19:17:43.701Z,16.70
2022-10-10T19:20:20.450Z,16.60
2022-10-10T19:23:02.139Z,16.60
2022-10-10T19:25:44.170Z,16.60
2022-10-10T19:28:19.173Z,16.60
2022-10-10T19:30:52.280Z,16.50
2022-10-10T19:33:28.710Z,16.50
2022-10-10T19:35:57.055Z,16.50
2022-10-10T19:38:31.634Z,16.50
2022-10-10T19:40:59.537Z,16.50
2022-10-10T19:43:33.555Z,16.50
2022-10-10T19:46:08.595Z,16.50
2022-10-10T19:48:45.266Z,16.50
2022-10-10T19:51:14.291Z,16.50
2022-10-10T19:53:51.055Z,16.50
2022-10-10T19:56:23.022Z,16.50
2022-10-10T19:59:01.613Z,16.50
2022-10-10T20:01:31.120Z,16.50
2022-10-10T20:04:05.625Z,16.40
2022-10-10T20:06:33.349Z,16.50
2022-10-10T20:09:10.870Z,16.50
2022-10-10T20:11:39.849Z,16.40
2022-10-10T20:14:21.993Z,16.40
2022-10-10T20:16:50.286Z,16.40
2022-10-10T20:19:18.178Z,16.40
2022-10-10T20:21:52.036Z,16.40
2022-10-10T20:24:25.643Z,16.40
2022-10-10T20:26:55.083Z,16.30
2022-10-10T20:29:28.769Z,16.30
2022-10-10T20:31:56.068Z,16.40
2022-10-10T20:34:29.680Z,16.40
2022-10-10T20:36:57.498Z,16.40
2022-10-10T20:39:33.664Z,16.40
2022-10-10T20:42:01.373Z,16.40
2022-10-10T20:44:35.713Z,16.40
2022-10-10T20:47:02.961Z,16.40
2022-10-10T20:49:37.702Z,16.40
2022-10-10T20:52:05.499Z,16.40
2022-10-10T20:54:39.760Z,16.40
2022-10-10T20:57:14.779Z,16.40
2022-10-10T20:59:42.388Z,16.50
2022-10-10T21:02:19.562Z,16.50
2022-10-10T21:04:46.869Z,16.50
2022-10-10T21:07:20.811Z,16.50
2022-10-10T21:09:54.889Z,16.50
2022-10-10T21:12:22.429Z,16.50
2022-10-10T21:15:10.091Z,16.50
2022-10-10T21:17:37.975Z,16.50
2022-10-10T21:20:12.843Z,16.50
2022-10-10T21:22:40.336Z,16.40
2022-10-10T21:25:14.823Z,16.40
2022-10-10T21:27:42.286Z,16.40
2022-10-10T21:30:16.891Z,16.40
2022-10-10T21:32:50.751Z,16.40
2022-10-10T21:35:25.147Z,16.40
2022-10-10T21:37:58.988Z,16.40
2022-10-10T21:40:26.314Z,16.40
2022-10-10T21:42:59.870Z,16.40
2022-10-10T21:45:27.778Z,16.40
2022-10-10T21:48:01.927Z,16.50
2022-10-10T21:50:30.451Z,16.50
2022-10-10T21:53:04.687Z,16.50
2022-10-10T21:55:32.361Z,16.50
2022-10-10T21:58:06.663Z,16.50
2022-10-10T22:00:40.931Z,16.50
2022-10-10T22:03:08.640Z,16.50
2022-10-10T22:05:43.739Z,16.50
2022-10-10T22:08:17.660Z,16.50
2022-10-10T22:10:45.889Z,16.50
2022-10-10T22:13:20.817Z,16.50
2022-10-10T22:16:02.031Z,16.50
2022-10-10T22:18:36.767Z,16.50
2022-10-10T22:21:06.069Z,16.50
2022-10-10T22:23:33.887Z,16.40
2022-10-10T22:26:08.071Z,16.40
2022-10-10T22:28:35.510Z,16.30
2022-10-10T22:31:18.816Z,16.30
2022-10-10T22:33:46.697Z,16.30
2022-10-10T22:36:20.778Z,16.20
2022-10-10T22:38:48.012Z,16.20
2022-10-10T22:41:21.717Z,16.20
2022-10-10T22:43:50.298Z,16.10
2022-10-10T22:46:24.787Z,16.10
2022-10-10T22:48:58.757Z,16.10
2022-10-10T22:51:26.067Z,16.10
2022-10-10T22:53:59.837Z,16.10
2022-10-10T22:56:33.759Z,16.10
2022-10-10T22:59:01.598Z,16.10
2022-10-10T23:01:35.813Z,16.00
2022-10-10T23:04:11.377Z,16.00
2022-10-10T23:06:44.595Z,16.00
2022-10-10T23:09:13.537Z,16.00
2022-10-10T23:11:47.687Z,16.00
2022-10-10T23:14:35.409Z,16.00
2022-10-10T23:17:09.866Z,16.00
2022-10-10T23:19:37.356Z,16.00
2022-10-10T23:22:11.898Z,16.00
2022-10-10T23:24:40.526Z,16.00
2022-10-10T23:27:14.797Z,16.00
2022-10-10T23:29:42.317Z,16.10
2022-10-10T23:32:15.747Z,16.10
2022-10-10T23:34:42.938Z,16.20
2022-10-10T23:37:18.155Z,16.20
2022-10-10T23:39:45.416Z,16.20
2022-10-10T23:42:18.766Z,16.20
2022-10-10T23:44:46.482Z,16.20
2022-10-10T23:47:20.701Z,16.20
2022-10-10T23:49:47.992Z,16.20
2022-10-10T23:52:15.457Z,16.20
2022-10-10T23:54:48.865Z,16.20
2022-10-10T23:57:22.593Z,16.20
2022-10-10T23:59:49.682Z,16.20
